createdAt,value
2023-01-30T00:02:24.626Z,6.78
2023-01-30T00:04:51.931Z,7.22
2023-01-30T00:07:21.489Z,6.28
2023-01-30T00:09:48.987Z,7.53
2023-01-30T00:12:20.948Z,6.68
2023-01-30T00:14:48.267Z,6.40
2023-01-30T00:17:15.452Z,7.57
2023-01-30T00:19:42.755Z,7.63
2023-01-30T00:22:20.629Z,6.95
2023-01-30T00:24:51.212Z,8.10
2023-01-30T00:27:29.289Z,8.25
2023-01-30T00:30:03.499Z,7.47
2023-01-30T00:32:31.332Z,7.47
2023-01-30T00:35:13.809Z,7.15
2023-01-30T00:37:44.040Z,7.30
2023-01-30T00:40:14.412Z,7.70
2023-01-30T00:43:00.005Z,7.00
2023-01-30T00:45:48.055Z,7.65
2023-01-30T00:48:17.841Z,8.00
2023-01-30T00:50:47.455Z,7.07
2023-01-30T00:53:18.596Z,7.70
2023-01-30T00:55:46.229Z,7.53
2023-01-30T00:58:16.942Z,7.78
2023-01-30T01:00:44.310Z,7.57
2023-01-30T01:03:14.512Z,7.78
2023-01-30T01:05:45.030Z,7.70
2023-01-30T01:08:15.019Z,7.03
2023-01-30T01:10:45.513Z,7.03
2023-01-30T01:13:18.209Z,7.40
2023-01-30T01:15:45.617Z,7.23
2023-01-30T01:18:12.815Z,8.05
2023-01-30T01:20:40.112Z,7.72
2023-01-30T01:23:07.286Z,7.68
2023-01-30T01:25:37.481Z,7.97
2023-01-30T01:28:06.787Z,6.13
2023-01-30T01:30:34.126Z,9.32
2023-01-30T01:33:04.321Z,7.20
2023-01-30T01:35:34.738Z,7.95
2023-01-30T01:38:01.859Z,6.70
2023-01-30T01:40:52.919Z,7.95
2023-01-30T01:43:26.004Z,7.70
2023-01-30T01:45:58.139Z,8.70
2023-01-30T01:48:41.313Z,7.53
2023-01-30T01:51:39.023Z,7.43
2023-01-30T01:54:18.236Z,8.02
2023-01-30T01:56:51.759Z,7.78
2023-01-30T02:02:29.304Z,6.60
2023-01-30T02:05:06.929Z,7.32
2023-01-30T02:08:02.024Z,7.53
2023-01-30T02:10:49.444Z,7.40
2023-01-30T02:13:19.953Z,7.65
2023-01-30T02:15:53.487Z,7.65
2023-01-30T02:18:31.233Z,7.47
2023-01-30T02:21:23.961Z,8.43
2023-01-30T02:24:35.445Z,7.82
2023-01-30T02:27:35.447Z,7.43
2023-01-30T02:30:08.692Z,8.32
2023-01-30T02:33:06.156Z,8.05
2023-01-30T02:36:16.071Z,8.45
2023-01-30T02:39:07.314Z,7.82
2023-01-30T02:42:09.030Z,7.68
2023-01-30T02:44:58.550Z,6.82
2023-01-30T02:48:06.042Z,6.97
2023-01-30T02:50:57.014Z,6.72
2023-01-30T02:53:24.930Z,9.88
2023-01-30T02:55:55.241Z,7.72
2023-01-30T02:58:39.238Z,7.70
2023-01-30T03:01:55.071Z,6.95
2023-01-30T03:04:53.427Z,8.02
2023-01-30T03:07:39.175Z,6.60
2023-01-30T03:10:16.637Z,7.07
2023-01-30T03:13:09.937Z,7.10
2023-01-30T03:16:04.612Z,8.20
2023-01-30T03:18:36.191Z,7.32
2023-01-30T03:21:10.277Z,6.80
2023-01-30T03:23:44.725Z,5.82
2023-01-30T03:26:20.880Z,6.90
2023-01-30T03:28:55.271Z,7.25
2023-01-30T03:31:27.081Z,6.85
2023-01-30T03:36:52.897Z,6.60
2023-01-30T03:39:30.027Z,7.00
2023-01-30T03:41:59.799Z,6.35
2023-01-30T03:44:32.749Z,6.70
2023-01-30T03:47:00.548Z,6.68
2023-01-30T03:49:36.583Z,6.50
2023-01-30T03:52:10.284Z,6.95
2023-01-30T03:54:45.716Z,6.45
2023-01-30T03:57:20.582Z,6.68
2023-01-30T04:00:26.544Z,6.72
2023-01-30T04:02:59.364Z,6.97
2023-01-30T04:05:27.057Z,6.10
2023-01-30T04:08:00.236Z,6.18
2023-01-30T04:10:33.560Z,7.03
2023-01-30T04:13:07.457Z,6.07
2023-01-30T04:15:46.330Z,6.40
2023-01-30T04:18:48.356Z,6.95
2023-01-30T04:21:26.773Z,5.95
2023-01-30T04:24:02.751Z,6.55
2023-01-30T04:26:32.883Z,7.20
2023-01-30T04:29:03.396Z,6.18
2023-01-30T04:31:39.703Z,6.05
2023-01-30T04:34:27.357Z,6.43
2023-01-30T04:37:03.448Z,6.53
2023-01-30T04:39:37.224Z,6.55
2023-01-30T04:42:13.980Z,7.00
2023-01-30T04:45:00.189Z,6.82
2023-01-30T04:47:35.155Z,6.57
2023-01-30T04:50:12.057Z,6.55
2023-01-30T04:52:58.294Z,6.00
2023-01-30T04:55:33.859Z,6.97
2023-01-30T04:58:09.995Z,6.20
2023-01-30T05:00:46.754Z,6.05
2023-01-30T05:03:20.292Z,6.10
2023-01-30T05:05:59.497Z,7.22
2023-01-30T05:08:32.979Z,6.30
2023-01-30T05:11:39.109Z,6.82
2023-01-30T05:14:10.038Z,6.00
2023-01-30T05:16:48.592Z,6.10
2023-01-30T05:19:21.737Z,6.07
2023-01-30T05:21:49.185Z,6.38
2023-01-30T05:24:18.882Z,5.43
2023-01-30T05:26:46.214Z,6.07
2023-01-30T05:29:13.470Z,5.95
2023-01-30T05:31:46.662Z,5.93
2023-01-30T05:34:21.832Z,6.35
2023-01-30T05:36:54.440Z,6.80
2023-01-30T05:39:21.714Z,5.95
2023-01-30T05:41:51.386Z,5.55
2023-01-30T05:44:21.596Z,5.55
2023-01-30T05:46:49.159Z,6.38
2023-01-30T05:49:22.351Z,5.82
2023-01-30T05:52:00.385Z,5.88
2023-01-30T05:54:33.910Z,5.70
2023-01-30T05:57:05.449Z,5.82
2023-01-30T05:59:35.840Z,5.95
2023-01-30T06:02:11.092Z,5.13
2023-01-30T06:04:42.213Z,6.47
2023-01-30T06:07:09.729Z,5.50
2023-01-30T06:09:39.600Z,6.07
2023-01-30T06:12:39.052Z,5.65
2023-01-30T06:15:29.524Z,6.28
2023-01-30T06:17:57.013Z,6.45
2023-01-30T06:20:27.411Z,6.45
2023-01-30T06:23:03.037Z,6.25
2023-01-30T06:25:37.993Z,6.43
2023-01-30T06:28:15.365Z,5.85
2023-01-30T06:31:08.330Z,6.18
2023-01-30T06:33:36.065Z,5.22
2023-01-30T06:36:07.071Z,5.78
2023-01-30T06:38:39.275Z,5.30
2023-01-30T06:41:12.304Z,5.68
2023-01-30T06:43:43.119Z,5.97
2023-01-30T06:46:20.742Z,6.15
2023-01-30T06:48:56.465Z,5.85
2023-01-30T06:51:27.809Z,5.93
2023-01-30T06:53:55.092Z,6.50
2023-01-30T06:56:26.221Z,6.45
2023-01-30T06:58:59.853Z,6.25
2023-01-30T07:01:28.935Z,6.05
2023-01-30T07:04:10.741Z,6.22
2023-01-30T07:06:51.055Z,6.03
2023-01-30T07:09:23.800Z,6.07
2023-01-30T07:11:58.649Z,6.63
2023-01-30T07:14:28.301Z,6.57
2023-01-30T07:17:10.579Z,6.22
2023-01-30T07:19:41.070Z,6.57
2023-01-30T07:22:22.049Z,6.28
2023-01-30T07:24:54.084Z,5.97
2023-01-30T07:27:27.157Z,7.45
2023-01-30T07:29:54.526Z,8.48
2023-01-30T07:32:24.191Z,7.43
2023-01-30T07:34:55.451Z,7.15
2023-01-30T07:37:44.359Z,7.07
2023-01-30T07:40:25.011Z,7.35
2023-01-30T07:43:00.215Z,8.23
2023-01-30T07:45:53.795Z,8.18
2023-01-30T07:48:24.462Z,7.93
2023-01-30T07:50:56.714Z,7.18
2023-01-30T07:53:33.052Z,7.55
2023-01-30T07:56:11.406Z,6.57
2023-01-30T07:58:45.677Z,7.22
2023-01-30T08:01:16.760Z,7.45
2023-01-30T08:03:52.337Z,6.78
2023-01-30T08:06:32.375Z,7.22
2023-01-30T08:09:27.645Z,8.38
2023-01-30T08:11:57.717Z,7.80
2023-01-30T08:14:30.602Z,7.78
2023-01-30T08:17:03.276Z,7.10
2023-01-30T08:19:33.232Z,7.53
2023-01-30T08:22:18.609Z,7.03
2023-01-30T08:24:50.332Z,6.60
2023-01-30T08:27:18.036Z,7.07
2023-01-30T08:29:49.718Z,6.95
2023-01-30T08:32:41.881Z,7.65
2023-01-30T08:35:12.611Z,7.20
2023-01-30T08:37:42.747Z,7.75
2023-01-30T08:40:16.999Z,8.82
2023-01-30T08:42:52.938Z,9.80
2023-01-30T08:45:27.576Z,8.98
2023-01-30T08:48:07.908Z,9.32
2023-01-30T08:50:41.748Z,8.48
2023-01-30T08:56:14.190Z,8.50
2023-01-30T08:58:53.832Z,9.25
2023-01-30T09:01:24.822Z,9.18
2023-01-30T09:03:58.891Z,9.23
2023-01-30T09:06:32.893Z,10.98
2023-01-30T09:09:04.031Z,10.25
2023-01-30T09:11:50.981Z,9.70
2023-01-30T09:14:24.973Z,9.30
2023-01-30T09:17:03.359Z,10.15
2023-01-30T09:19:36.358Z,11.27
2023-01-30T09:22:20.535Z,8.70
2023-01-30T09:24:56.225Z,8.82
2023-01-30T09:27:32.112Z,9.55
2023-01-30T09:30:12.595Z,9.63
2023-01-30T09:32:53.949Z,10.85
2023-01-30T09:35:28.726Z,7.43
2023-01-30T09:38:08.547Z,6.65
2023-01-30T09:41:19.945Z,7.28
2023-01-30T09:44:18.207Z,5.68
2023-01-30T09:47:08.932Z,6.35
2023-01-30T09:50:10.982Z,8.18
2023-01-30T09:58:30.444Z,6.90
2023-01-30T10:01:12.170Z,6.22
2023-01-30T10:03:59.178Z,7.05
2023-01-30T10:06:41.479Z,7.53
2023-01-30T10:09:21.129Z,6.20
2023-01-30T10:12:14.627Z,5.75
2023-01-30T10:15:32.957Z,6.53
2023-01-30T10:18:29.694Z,6.40
2023-01-30T10:21:41.519Z,5.82
2023-01-30T10:24:52.109Z,6.47
2023-01-30T10:27:32.071Z,6.93
2023-01-30T10:30:08.741Z,6.75
2023-01-30T10:32:58.474Z,6.60
2023-01-30T10:35:38.654Z,6.13
2023-01-30T10:41:30.180Z,5.30
2023-01-30T10:44:19.369Z,6.53
2023-01-30T10:47:29.807Z,7.43
2023-01-30T10:50:38.527Z,6.57
2023-01-30T10:53:44.821Z,6.40
2023-01-30T10:59:40.456Z,7.03
2023-01-30T11:02:47.117Z,6.90
2023-01-30T11:05:46.305Z,5.22
2023-01-30T11:11:59.557Z,6.63
2023-01-30T11:17:31.613Z,6.40
2023-01-30T11:23:36.083Z,6.25
2023-01-30T11:29:32.772Z,6.88
2023-01-30T11:39:11.844Z,7.07
2023-01-30T11:45:36.647Z,7.07
2023-01-30T11:51:18.641Z,6.18
2023-01-30T11:54:07.910Z,7.78
2023-01-30T11:56:57.299Z,6.60
2023-01-30T12:00:06.307Z,6.75
2023-01-30T12:03:16.529Z,6.15
2023-01-30T12:08:42.902Z,6.70
2023-01-30T12:11:48.222Z,6.85
2023-01-30T12:15:12.600Z,6.28
2023-01-30T12:20:58.698Z,5.97
2023-01-30T12:26:41.999Z,5.80
2023-01-30T12:29:46.172Z,5.65
2023-01-30T12:32:52.864Z,5.70
2023-01-30T12:36:04.500Z,6.18
2023-01-30T12:39:02.801Z,5.85
2023-01-30T12:42:25.825Z,5.97
2023-01-30T12:45:04.241Z,5.75
2023-01-30T12:48:14.942Z,5.65
2023-01-30T12:51:01.777Z,5.70
2023-01-30T12:54:11.467Z,5.95
2023-01-30T12:57:11.772Z,6.38
2023-01-30T13:00:06.425Z,6.32
2023-01-30T13:03:12.076Z,5.68
2023-01-30T13:06:06.174Z,5.22
2023-01-30T13:09:10.103Z,5.05
2023-01-30T13:12:15.236Z,5.93
2023-01-30T13:15:05.533Z,5.28
2023-01-30T13:17:49.658Z,5.35
2023-01-30T13:20:45.390Z,5.78
2023-01-30T13:26:53.878Z,5.15
2023-01-30T13:30:09.552Z,5.72
2023-01-30T13:33:16.594Z,5.97
2023-01-30T13:36:13.562Z,5.03
2023-01-30T13:39:09.537Z,5.47
2023-01-30T13:41:42.781Z,6.47
2023-01-30T13:44:20.932Z,5.32
2023-01-30T13:46:55.581Z,5.50
2023-01-30T13:49:47.522Z,5.65
2023-01-30T13:52:32.204Z,4.93
2023-01-30T13:55:21.851Z,8.52
2023-01-30T13:58:18.010Z,5.57
2023-01-30T14:00:56.132Z,5.63
2023-01-30T14:03:35.757Z,6.00
2023-01-30T14:06:24.037Z,5.57
2023-01-30T14:11:44.942Z,5.10
2023-01-30T14:14:16.037Z,5.63
2023-01-30T14:16:54.880Z,5.82
2023-01-30T14:19:44.990Z,6.82
2023-01-30T14:22:32.638Z,6.97
2023-01-30T14:25:30.732Z,6.50
2023-01-30T14:28:03.339Z,5.63
2023-01-30T14:30:52.137Z,5.50
2023-01-30T14:33:30.852Z,5.00
2023-01-30T14:35:59.028Z,5.97
2023-01-30T14:38:45.794Z,5.13
2023-01-30T14:41:40.999Z,5.40
2023-01-30T14:44:08.528Z,5.32
2023-01-30T14:46:54.406Z,4.78
2023-01-30T14:49:31.556Z,5.03
2023-01-30T14:52:05.826Z,5.60
2023-01-30T14:54:58.937Z,5.32
2023-01-30T14:57:32.970Z,5.88
2023-01-30T15:00:19.681Z,5.20
2023-01-30T15:02:55.451Z,4.95
2023-01-30T15:05:37.591Z,4.40
2023-01-30T15:08:21.443Z,5.65
2023-01-30T15:14:01.353Z,5.20
2023-01-30T15:16:28.744Z,5.43
2023-01-30T15:19:20.313Z,5.03
2023-01-30T15:22:13.702Z,4.13
2023-01-30T15:25:27.747Z,5.30
2023-01-30T15:27:59.205Z,4.70
2023-01-30T15:31:06.437Z,4.90
2023-01-30T15:34:03.831Z,4.93
2023-01-30T15:36:46.883Z,5.45
2023-01-30T15:39:31.204Z,4.78
2023-01-30T15:42:12.393Z,5.10
2023-01-30T15:45:23.491Z,5.70
2023-01-30T15:48:45.191Z,5.40
2023-01-30T15:56:54.054Z,5.03
2023-01-30T15:59:42.945Z,4.88
2023-01-30T16:02:21.450Z,5.73
2023-01-30T16:05:20.689Z,5.45
2023-01-30T16:07:54.431Z,4.70
2023-01-30T16:10:44.995Z,6.53
2023-01-30T16:13:19.941Z,5.22
2023-01-30T16:16:19.989Z,4.95
2023-01-30T16:18:58.386Z,4.90
2023-01-30T16:21:41.127Z,4.85
2023-01-30T16:24:27.657Z,5.25
2023-01-30T16:27:20.095Z,4.88
2023-01-30T16:29:56.589Z,4.97
2023-01-30T16:32:34.420Z,5.28
2023-01-30T16:35:27.493Z,4.82
2023-01-30T16:38:44.680Z,5.20
2023-01-30T16:41:52.080Z,5.70
2023-01-30T16:44:31.704Z,4.97
2023-01-30T16:47:27.476Z,5.90
2023-01-30T16:52:53.093Z,5.95
2023-01-30T16:58:22.623Z,6.35
2023-01-30T17:00:57.272Z,5.82
2023-01-30T17:03:53.814Z,5.80
2023-01-30T17:06:53.714Z,6.22
2023-01-30T17:10:13.121Z,6.68
2023-01-30T17:15:48.651Z,5.82
2023-01-30T17:18:24.384Z,6.63
2023-01-30T17:21:00.761Z,6.75
2023-01-30T17:23:59.653Z,6.38
2023-01-30T17:26:34.217Z,6.80
2023-01-30T17:29:28.975Z,6.47
2023-01-30T17:32:39.336Z,6.28
2023-01-30T17:37:48.520Z,6.88
2023-01-30T17:40:23.435Z,6.55
2023-01-30T17:43:27.432Z,7.28
2023-01-30T17:46:00.143Z,7.03
2023-01-30T17:48:36.397Z,7.53
2023-01-30T17:51:13.150Z,7.45
2023-01-30T17:53:46.815Z,7.50
2023-01-30T17:58:55.681Z,7.10
2023-01-30T18:01:34.905Z,9.27
2023-01-30T18:04:05.197Z,8.15
2023-01-30T18:06:37.174Z,7.05
2023-01-30T18:09:29.563Z,9.27
2023-01-30T18:11:59.860Z,7.38
2023-01-30T18:14:29.328Z,7.65
2023-01-30T18:17:03.062Z,8.13
2023-01-30T18:19:34.641Z,7.25
2023-01-30T18:22:12.441Z,7.47
2023-01-30T18:24:40.510Z,8.18
2023-01-30T18:30:01.658Z,7.63
2023-01-30T18:32:33.388Z,8.05
2023-01-30T18:35:13.460Z,7.93
2023-01-30T18:37:41.068Z,8.88
2023-01-30T18:40:15.473Z,8.93
2023-01-30T18:42:53.902Z,9.20
2023-01-30T18:45:22.541Z,8.07
2023-01-30T18:47:53.462Z,8.52
2023-01-30T18:50:28.297Z,8.27
2023-01-30T18:53:03.260Z,8.18
2023-01-30T18:55:41.150Z,8.10
2023-01-30T18:58:12.678Z,9.40
2023-01-30T19:00:40.260Z,9.23
2023-01-30T19:03:10.429Z,8.95
2023-01-30T19:05:46.528Z,8.25
2023-01-30T19:08:13.733Z,8.68
2023-01-30T19:10:41.138Z,8.10
2023-01-30T19:13:29.745Z,8.10
2023-01-30T19:16:04.003Z,9.07
2023-01-30T19:18:35.774Z,8.90
2023-01-30T19:21:18.082Z,7.85
2023-01-30T19:24:02.164Z,8.10
2023-01-30T19:26:35.181Z,8.05
2023-01-30T19:29:02.790Z,9.20
2023-01-30T19:34:14.918Z,8.18
2023-01-30T19:36:54.119Z,8.68
2023-01-30T19:39:33.109Z,8.60
2023-01-30T19:42:08.799Z,8.32
2023-01-30T19:44:38.790Z,8.40
2023-01-30T19:47:06.196Z,8.35
2023-01-30T19:49:42.619Z,8.77
2023-01-30T19:52:19.390Z,8.23
2023-01-30T19:54:50.367Z,8.68
2023-01-30T19:57:27.857Z,10.63
2023-01-30T19:59:59.522Z,8.82
2023-01-30T20:02:33.557Z,8.50
2023-01-30T20:05:27.572Z,8.00
2023-01-30T20:07:58.555Z,8.15
2023-01-30T20:10:26.171Z,7.93
2023-01-30T20:13:07.230Z,7.97
2023-01-30T20:15:47.120Z,7.68
2023-01-30T20:18:14.563Z,7.75
2023-01-30T20:20:44.565Z,7.35
2023-01-30T20:23:12.076Z,7.88
2023-01-30T20:25:39.313Z,8.20
2023-01-30T20:30:53.380Z,7.40
2023-01-30T20:33:24.283Z,7.68
2023-01-30T20:36:05.884Z,7.15
2023-01-30T20:38:40.687Z,7.03
2023-01-30T20:41:30.292Z,7.13
2023-01-30T20:43:58.978Z,7.32
2023-01-30T20:46:45.259Z,7.60
2023-01-30T20:49:30.989Z,7.30
2023-01-30T20:52:05.663Z,7.15
2023-01-30T20:54:44.954Z,7.07
2023-01-30T20:57:12.653Z,7.45
2023-01-30T20:59:40.443Z,8.15
2023-01-30T21:02:10.658Z,6.78
2023-01-30T21:04:44.219Z,7.40
2023-01-30T21:07:20.672Z,7.65
2023-01-30T21:09:48.166Z,7.22
2023-01-30T21:12:15.307Z,7.90
2023-01-30T21:14:44.793Z,8.05
2023-01-30T21:17:24.447Z,7.57
2023-01-30T21:19:53.106Z,6.85
2023-01-30T21:22:20.472Z,7.22
2023-01-30T21:24:47.824Z,7.25
2023-01-30T21:27:15.457Z,7.47
2023-01-30T21:30:00.250Z,7.18
2023-01-30T21:32:35.655Z,7.85
2023-01-30T21:41:25.732Z,6.35
2023-01-30T21:44:21.041Z,6.95
2023-01-30T21:46:51.384Z,7.07
2023-01-30T21:49:42.069Z,7.05
2023-01-30T21:52:10.535Z,6.60
2023-01-30T21:54:46.830Z,6.60
2023-01-30T21:57:20.122Z,7.35
2023-01-30T22:00:06.308Z,7.07
2023-01-30T22:03:08.757Z,6.75
2023-01-30T22:05:46.598Z,6.50
2023-01-30T22:08:23.053Z,6.93
2023-01-30T22:11:05.098Z,7.13
2023-01-30T22:13:38.953Z,6.55
2023-01-30T22:16:29.255Z,7.47
2023-01-30T22:19:05.604Z,7.20
2023-01-30T22:21:40.621Z,6.72
2023-01-30T22:24:15.558Z,7.30
2023-01-30T22:26:56.553Z,6.88
2023-01-30T22:29:31.771Z,6.03
2023-01-30T22:32:04.897Z,6.97
2023-01-30T22:34:39.333Z,6.78
2023-01-30T22:37:08.362Z,6.45
2023-01-30T22:39:37.572Z,6.63
2023-01-30T22:47:33.565Z,6.65
2023-01-30T22:50:01.145Z,6.68
2023-01-30T22:52:36.982Z,7.35
2023-01-30T22:55:07.206Z,6.72
2023-01-30T22:57:52.198Z,5.75
2023-01-30T23:00:36.982Z,6.75
2023-01-30T23:03:10.855Z,7.25
2023-01-30T23:05:40.512Z,6.60
2023-01-30T23:08:15.425Z,6.28
2023-01-30T23:10:42.861Z,6.45
2023-01-30T23:13:18.415Z,6.57
2023-01-30T23:15:50.654Z,5.97
2023-01-30T23:18:39.013Z,6.50
2023-01-30T23:21:12.057Z,6.78
2023-01-30T23:23:49.186Z,6.97
2023-01-30T23:26:23.507Z,5.45
2023-01-30T23:28:51.089Z,6.35
2023-01-30T23:31:24.234Z,6.45
2023-01-30T23:33:55.984Z,6.70
2023-01-30T23:36:26.528Z,6.22
2023-01-30T23:38:59.575Z,6.10
2023-01-30T23:41:35.379Z,6.03
2023-01-30T23:44:09.995Z,6.50
2023-01-30T23:46:42.663Z,6.30
2023-01-30T23:49:15.124Z,6.38
2023-01-30T23:51:45.553Z,6.88
2023-01-30T23:54:14.528Z,6.88
2023-01-30T23:56:59.317Z,6.13
2023-01-30T23:59:33.369Z,5.95
